Terminal Aerodrome Forecast
Issued by NWS Charleston, WV

Home | Current Version | Previous Version | Text Only | Print | Product List | Glossary On
Versions: 1 2 3 4 5 6 7 8 9 10 11 12 13 14 15 16 17 18 19 20 21 22
694
FTUS41 KRLX 111720
TAFBKW
TAF
KBKW 111720Z 1118/1218 23006KT P6SM FEW250
     FM120500 21007KT P6SM BKN150
     FM120900 25008KT P6SM BKN035
     FM121200 27009G20KT 4SM -SHSN BKN012
     FM121400 29011G21KT 2SM -SHSN BKN014=

USA.gov is the U.S. government's official web portal to all federal, state and local government web resources and services.